Terminal Aerodrome Forecast
Issued by NWS

Home | Current Version | Previous Version | Text Only | Print | Product List | Glossary On
Versions: 1 2 3 4 5 6 7 8 9 10 11 12 13 14 15 16 17
000
FTUS46 KMFR 281809 AAA
TAFLMT
TAF AMD
KLMT 281809Z 2818/2918 27012G19KT P6SM SCT025 SCT035
     FM290100 30009KT P6SM FEW015
     FM290800 28007KT P6SM VCSH SCT005 BKN015=

USA.gov is the U.S. government's official web portal to all federal, state and local government web resources and services.